Time;durP1;ratioP1;P1;durP2;ratioP2;P2;SDS_P1;SDS_P2;PMS_P1;PMS_P2;Temp;Humidity;BMP_temperature;BMP_pressure;BME280_temperature;BME280_humidity;BME280_pressure;Samples;Min_cycle;Max_cycle;Signal;HPM_P1;HPM_P2
2023/01/29 00:01:38;;;;;;;13.57;8.43;;;3.90;99.90;;;;;;5054805;28;20053;-61
2023/01/29 00:04:04;;;;;;;12.55;8.43;;;3.80;99.90;;;;;;5048348;28;20048;-61
2023/01/29 00:06:30;;;;;;;11.77;8.73;;;3.80;99.90;;;;;;5048394;28;20586;-61
2023/01/29 00:08:56;;;;;;;15.20;9.00;;;3.90;99.90;;;;;;5052682;28;20115;-61
2023/01/29 00:11:24;;;;;;;11.13;8.20;;;3.80;99.90;;;;;;5051952;28;20959;-61
2023/01/29 00:13:50;;;;;;;14.95;8.50;;;3.90;99.90;;;;;;5053244;28;20040;-60
2023/01/29 00:16:19;;;;;;;15.77;9.48;;;3.80;99.90;;;;;;5052560;28;20149;-60
2023/01/29 00:18:46;;;;;;;14.43;9.45;;;3.80;99.90;;;;;;5056083;28;20076;-61
2023/01/29 00:21:20;;;;;;;16.33;9.35;;;3.80;99.90;;;;;;5038198;28;20047;-62
2023/01/29 00:23:47;;;;;;;14.77;9.43;;;3.80;99.90;;;;;;5061504;28;20175;-61
2023/01/29 00:26:13;;;;;;;17.73;9.65;;;3.80;99.90;;;;;;5034213;28;20135;-61
2023/01/29 00:28:39;;;;;;;13.93;9.25;;;3.90;99.90;;;;;;5055695;28;20503;-62
2023/01/29 00:31:09;;;;;;;15.38;9.88;;;3.90;99.90;;;;;;5052484;28;20148;-60
2023/01/29 00:33:35;;;;;;;13.40;9.32;;;3.80;99.90;;;;;;5056503;28;20048;-61
2023/01/29 00:36:03;;;;;;;14.38;10.00;;;3.80;99.90;;;;;;5053094;28;20045;-63
2023/01/29 00:38:29;;;;;;;17.23;10.52;;;3.80;99.90;;;;;;5053290;28;20411;-62
2023/01/29 00:46:23;;;;;;;15.60;10.27;;;3.80;99.90;;;;;;5043670;28;20478;-62
2023/01/29 00:48:49;;;;;;;14.95;10.38;;;3.80;99.90;;;;;;5059487;28;20068;-60
2023/01/29 00:51:15;;;;;;;19.20;10.38;;;3.80;99.90;;;;;;5035773;28;20140;-61
2023/01/29 00:53:41;;;;;;;16.00;10.45;;;3.80;99.90;;;;;;5059175;28;20128;-62
2023/01/29 00:56:07;;;;;;;13.88;10.48;;;3.80;99.90;;;;;;5047305;28;20041;-61
2023/01/29 00:58:35;;;;;;;17.15;10.88;;;3.80;99.90;;;;;;5050350;28;20056;-61
2023/01/29 01:01:01;;;;;;;16.30;11.02;;;3.80;99.90;;;;;;5053761;28;20051;-62
2023/01/29 01:03:28;;;;;;;19.30;11.30;;;3.80;99.90;;;;;;5048186;28;20113;-61
2023/01/29 01:06:05;;;;;;;15.75;10.45;;;3.80;99.90;;;;;;5049848;28;20056;-62
2023/01/29 01:11:16;;;;;;;17.77;11.18;;;3.80;99.90;;;;;;5049540;28;20063;-61
2023/01/29 01:13:42;;;;;;;17.90;10.50;;;3.80;99.90;;;;;;5040171;28;20079;-61
2023/01/29 01:16:14;;;;;;;17.95;11.10;;;3.80;99.90;;;;;;5052518;28;20064;-61
2023/01/29 01:18:40;;;;;;;18.90;11.00;;;3.80;99.90;;;;;;5050495;28;20072;-62
2023/01/29 01:21:06;;;;;;;17.10;11.48;;;3.80;99.90;;;;;;5050400;28;20056;-62
2023/01/29 01:23:32;;;;;;;16.65;10.52;;;3.80;99.90;;;;;;5042020;28;20068;-62
2023/01/29 01:25:58;;;;;;;18.58;11.70;;;3.80;99.90;;;;;;5048441;28;20110;-61
2023/01/29 01:28:24;;;;;;;19.95;12.07;;;3.80;99.90;;;;;;5047714;28;20045;-60
2023/01/29 01:30:50;;;;;;;17.27;11.27;;;3.80;99.90;;;;;;5048826;28;20040;-62
2023/01/29 01:33:16;;;;;;;20.33;11.98;;;3.80;99.90;;;;;;5031298;28;20466;-61
2023/01/29 01:35:42;;;;;;;20.27;11.75;;;3.80;99.90;;;;;;5051862;28;20144;-60
2023/01/29 01:38:08;;;;;;;17.58;11.85;;;3.80;99.90;;;;;;5051222;28;20121;-60
2023/01/29 01:40:34;;;;;;;20.77;12.50;;;3.80;99.90;;;;;;5048214;28;20053;-60
2023/01/29 01:43:00;;;;;;;21.73;12.38;;;3.80;99.90;;;;;;5056858;28;20123;-61
2023/01/29 01:45:31;;;;;;;18.50;12.13;;;3.80;99.90;;;;;;5054706;28;20045;-62
2023/01/29 01:48:11;;;;;;;18.83;12.15;;;3.80;99.90;;;;;;5059729;28;20055;-62
2023/01/29 01:50:57;;;;;;;19.92;12.60;;;3.80;99.90;;;;;;5040346;28;20075;-60
2023/01/29 01:53:29;;;;;;;19.58;11.93;;;3.80;99.90;;;;;;5070471;28;20469;-61
2023/01/29 01:56:00;;;;;;;18.47;12.43;;;3.80;99.90;;;;;;5070312;28;20048;-61
2023/01/29 01:58:39;;;;;;;22.67;12.63;;;3.90;99.90;;;;;;5076195;28;20047;-62
2023/01/29 02:01:07;;;;;;;19.92;13.00;;;3.80;99.90;;;;;;5054213;28;20043;-61
2023/01/29 02:12:05;;;;;;;19.73;13.43;;;3.80;99.90;;;;;;5067515;28;20119;-62
2023/01/29 02:14:37;;;;;;;21.73;13.82;;;3.90;99.90;;;;;;5073121;28;20130;-61
2023/01/29 02:17:04;;;;;;;21.83;14.17;;;3.90;99.90;;;;;;5086209;28;20168;-62
2023/01/29 02:19:52;;;;;;;23.50;13.43;;;3.90;99.90;;;;;;5071919;28;20052;-60
2023/01/29 02:22:30;;;;;;;20.58;13.52;;;3.90;99.90;;;;;;5067754;28;20062;-61
2023/01/29 02:25:21;;;;;;;23.42;14.57;;;3.90;99.90;;;;;;5074016;28;20044;-62
2023/01/29 02:27:47;;;;;;;22.70;14.20;;;3.90;99.90;;;;;;5072928;28;20490;-61
2023/01/29 02:30:38;;;;;;;20.35;14.07;;;3.90;99.90;;;;;;5071037;28;20050;-62
2023/01/29 02:33:48;;;;;;;26.05;14.57;;;3.90;99.90;;;;;;5063562;28;20051;-61
2023/01/29 02:36:37;;;;;;;23.58;15.27;;;3.90;99.90;;;;;;5043758;28;20529;-62
2023/01/29 02:39:32;;;;;;;21.05;14.55;;;4.00;99.90;;;;;;5077365;28;21156;-62
2023/01/29 02:42:15;;;;;;;23.85;15.25;;;3.90;99.90;;;;;;5094138;28;20039;-61
2023/01/29 02:44:47;;;;;;;26.85;15.40;;;3.90;99.90;;;;;;5083920;28;20079;-61
2023/01/29 02:47:42;;;;;;;23.02;15.38;;;4.00;99.90;;;;;;5073699;28;20112;-60
2023/01/29 02:50:20;;;;;;;27.63;16.38;;;4.00;99.90;;;;;;5044758;28;20060;-61
2023/01/29 02:53:00;;;;;;;23.27;15.80;;;4.00;99.90;;;;;;5069245;28;20339;-61
2023/01/29 02:55:48;;;;;;;30.48;17.30;;;4.00;99.90;;;;;;5076533;28;20500;-60
2023/01/29 02:58:38;;;;;;;23.98;16.67;;;4.00;99.90;;;;;;5091626;28;20137;-62
2023/01/29 03:01:31;;;;;;;24.73;15.93;;;4.10;99.90;;;;;;5076815;28;20071;-61
2023/01/29 03:04:07;;;;;;;26.08;16.67;;;4.00;99.90;;;;;;5090442;28;20048;-61
2023/01/29 03:06:45;;;;;;;27.45;16.45;;;4.00;99.90;;;;;;5083683;28;20036;-62
2023/01/29 03:09:34;;;;;;;27.75;16.85;;;4.00;99.90;;;;;;5079229;28;20079;-60
2023/01/29 03:12:32;;;;;;;26.67;17.30;;;4.00;99.90;;;;;;5087819;28;20036;-61
2023/01/29 03:15:11;;;;;;;24.65;16.77;;;4.00;99.90;;;;;;5071087;28;20370;-62
2023/01/29 03:18:00;;;;;;;27.85;16.83;;;4.00;99.90;;;;;;5095264;28;20044;-61
2023/01/29 03:20:31;;;;;;;27.42;17.15;;;4.00;99.90;;;;;;5075621;28;20047;-61
2023/01/29 03:23:02;;;;;;;28.13;17.55;;;4.00;99.90;;;;;;5072625;28;20532;-61
2023/01/29 03:34:23;;;;;;;28.95;17.85;;;4.00;99.90;;;;;;5084288;28;20114;-61
2023/01/29 03:37:14;;;;;;;32.75;19.08;;;4.00;99.90;;;;;;5088168;28;20040;-63
2023/01/29 03:39:41;;;;;;;31.27;18.60;;;3.90;99.90;;;;;;5050540;28;20089;-61
2023/01/29 03:42:09;;;;;;;29.35;19.33;;;3.90;99.90;;;;;;5075923;28;20046;-61
2023/01/29 03:44:56;;;;;;;36.20;21.30;;;3.90;99.90;;;;;;5078941;28;20046;-62
2023/01/29 03:47:50;;;;;;;34.50;22.33;;;3.90;99.90;;;;;;5078021;28;20490;-62
2023/01/29 03:50:51;;;;;;;34.38;22.45;;;3.90;99.90;;;;;;5066835;28;20056;-61
2023/01/29 03:53:35;;;;;;;35.83;23.23;;;3.90;99.90;;;;;;5080109;28;20040;-61
2023/01/29 03:56:06;;;;;;;40.90;23.25;;;3.90;99.90;;;;;;5095565;28;20050;-62
2023/01/29 03:58:44;;;;;;;38.45;24.17;;;3.90;99.90;;;;;;5077196;28;20082;-62
2023/01/29 04:01:31;;;;;;;35.67;22.88;;;3.90;99.90;;;;;;5078132;28;20049;-60
2023/01/29 04:04:08;;;;;;;37.95;23.95;;;3.90;99.90;;;;;;5056202;28;20494;-62
2023/01/29 04:06:38;;;;;;;37.45;24.50;;;3.90;99.90;;;;;;5089058;28;20543;-61
2023/01/29 04:09:32;;;;;;;36.97;24.13;;;3.90;99.90;;;;;;5078244;28;20040;-62
2023/01/29 04:12:08;;;;;;;37.53;24.10;;;3.90;99.90;;;;;;5060743;28;20039;-61
2023/01/29 04:14:35;;;;;;;39.00;24.65;;;3.90;99.90;;;;;;5065306;28;20482;-60
2023/01/29 04:17:11;;;;;;;38.10;24.65;;;3.90;99.90;;;;;;5089131;28;20596;-61
2023/01/29 04:19:38;;;;;;;37.28;24.45;;;3.90;99.90;;;;;;5071193;28;20051;-61
2023/01/29 04:22:16;;;;;;;34.63;23.65;;;3.90;99.90;;;;;;5066890;28;20123;-61
2023/01/29 04:24:42;;;;;;;34.88;23.60;;;3.90;99.90;;;;;;5094874;28;20271;-62
2023/01/29 04:27:20;;;;;;;36.75;23.65;;;3.90;99.90;;;;;;5075706;28;20486;-62
2023/01/29 04:29:57;;;;;;;35.40;23.90;;;3.90;99.90;;;;;;5070268;28;20048;-62
2023/01/29 04:32:41;;;;;;;38.42;23.25;;;3.90;99.90;;;;;;5060000;28;20124;-61
2023/01/29 04:35:22;;;;;;;36.10;23.13;;;3.90;99.90;;;;;;5078430;28;20489;-61
2023/01/29 04:38:12;;;;;;;34.80;22.95;;;3.90;99.90;;;;;;5076541;28;20047;-61
2023/01/29 04:41:02;;;;;;;39.13;24.23;;;3.90;99.90;;;;;;5071366;28;20107;-61
2023/01/29 04:43:49;;;;;;;35.95;23.63;;;3.90;99.90;;;;;;5069583;28;20040;-62
2023/01/29 04:46:39;;;;;;;37.00;24.25;;;4.00;99.90;;;;;;5095403;28;20044;-62
2023/01/29 04:49:43;;;;;;;37.70;23.17;;;4.00;99.90;;;;;;5076176;28;20043;-61
2023/01/29 04:52:16;;;;;;;42.92;23.40;;;4.00;99.90;;;;;;5036883;28;20059;-61
2023/01/29 04:55:00;;;;;;;37.10;24.48;;;4.00;99.90;;;;;;5096640;28;20123;-63
2023/01/29 04:57:34;;;;;;;45.00;24.60;;;4.00;99.90;;;;;;5063188;28;20123;-62
2023/01/29 05:00:11;;;;;;;37.83;23.60;;;4.00;99.90;;;;;;5096954;28;20047;-61
2023/01/29 05:02:38;;;;;;;39.42;24.75;;;4.00;99.90;;;;;;5079149;28;20059;-62
2023/01/29 05:05:06;;;;;;;40.00;25.00;;;4.00;99.90;;;;;;5092220;28;20052;-61
2023/01/29 05:07:35;;;;;;;40.08;24.90;;;4.00;99.90;;;;;;5094671;28;20039;-61
2023/01/29 05:10:04;;;;;;;40.05;25.00;;;4.00;99.90;;;;;;5078003;28;20058;-61
2023/01/29 05:12:30;;;;;;;37.72;24.45;;;4.00;99.90;;;;;;5069273;28;20031;-62
2023/01/29 05:15:00;;;;;;;42.00;25.65;;;4.00;99.90;;;;;;5062650;28;20465;-61
2023/01/29 05:17:27;;;;;;;36.47;24.67;;;4.00;99.90;;;;;;5065004;28;20104;-62
2023/01/29 05:19:55;;;;;;;37.63;24.27;;;4.00;99.90;;;;;;5093788;28;20473;-62
2023/01/29 05:22:22;;;;;;;39.22;23.90;;;4.00;99.90;;;;;;5070453;28;20390;-62
2023/01/29 05:24:49;;;;;;;37.53;23.67;;;4.00;99.90;;;;;;5063387;28;20050;-62
2023/01/29 05:30:15;;;;;;;40.67;23.70;;;4.10;99.90;;;;;;5079595;28;20443;-61
2023/01/29 05:32:41;;;;;;;37.38;23.35;;;4.00;99.90;;;;;;5073538;28;20063;-62
2023/01/29 05:35:07;;;;;;;36.38;23.35;;;4.00;99.90;;;;;;5061315;28;20148;-62
2023/01/29 05:37:33;;;;;;;39.75;23.17;;;4.00;99.90;;;;;;5055080;28;20070;-61
2023/01/29 05:39:58;;;;;;;35.85;23.27;;;3.90;99.90;;;;;;5069104;28;20104;-61
2023/01/29 05:42:24;;;;;;;38.08;23.00;;;4.00;99.90;;;;;;5080917;28;20039;-60
2023/01/29 05:44:50;;;;;;;37.67;23.05;;;4.00;99.90;;;;;;5096022;28;20048;-61
2023/01/29 05:47:20;;;;;;;35.38;22.95;;;4.00;99.90;;;;;;5073996;28;20078;-61
2023/01/29 05:49:45;;;;;;;40.88;21.63;;;4.10;99.90;;;;;;5095603;28;20039;-60
2023/01/29 05:52:11;;;;;;;34.38;22.17;;;4.00;99.90;;;;;;5072979;28;20402;-61
2023/01/29 05:54:37;;;;;;;35.70;21.45;;;4.00;99.90;;;;;;5073683;28;20040;-61
2023/01/29 05:57:03;;;;;;;35.22;22.00;;;4.00;99.90;;;;;;5093407;28;20039;-62
2023/01/29 05:59:30;;;;;;;35.85;21.90;;;4.00;99.90;;;;;;5078004;28;20087;-60
2023/01/29 06:01:56;;;;;;;31.83;21.48;;;3.90;99.90;;;;;;5071419;28;20043;-61
2023/01/29 06:04:22;;;;;;;34.38;21.50;;;4.00;99.90;;;;;;5066880;28;20062;-61
2023/01/29 06:06:48;;;;;;;35.92;21.83;;;4.00;99.90;;;;;;5073441;28;20429;-61
2023/01/29 06:09:14;;;;;;;34.90;22.23;;;4.00;99.90;;;;;;5081811;28;20051;-61
2023/01/29 06:11:39;;;;;;;34.08;22.42;;;4.00;99.90;;;;;;5070436;28;20118;-62
2023/01/29 06:14:05;;;;;;;35.55;21.83;;;4.00;99.90;;;;;;5074028;28;20035;-60
2023/01/29 06:16:31;;;;;;;34.10;21.48;;;4.00;99.90;;;;;;5068844;28;20153;-61
2023/01/29 06:18:57;;;;;;;35.30;21.13;;;4.00;99.90;;;;;;5072409;28;20043;-61
2023/01/29 06:21:23;;;;;;;34.72;21.88;;;4.00;99.90;;;;;;5063567;28;20611;-62
2023/01/29 06:23:51;;;;;;;42.30;23.10;;;4.00;99.90;;;;;;5078300;28;20047;-62
2023/01/29 06:26:17;;;;;;;37.95;23.00;;;4.00;99.90;;;;;;5077109;28;20457;-61
2023/01/29 06:28:44;;;;;;;39.78;23.85;;;4.00;99.90;;;;;;5059140;28;20142;-61
2023/01/29 06:31:10;;;;;;;36.90;23.38;;;4.10;99.90;;;;;;5095476;28;20054;-61
2023/01/29 06:33:36;;;;;;;33.10;22.70;;;4.00;99.90;;;;;;5050933;28;20146;-61
2023/01/29 06:36:04;;;;;;;38.25;24.30;;;4.00;99.90;;;;;;5091870;28;20499;-62
2023/01/29 06:38:30;;;;;;;36.28;23.85;;;4.00;99.90;;;;;;5076774;28;20457;-60
2023/01/29 06:40:57;;;;;;;42.13;25.25;;;4.00;99.90;;;;;;5094350;28;20066;-62
2023/01/29 06:43:23;;;;;;;42.38;26.00;;;4.00;99.90;;;;;;5095582;28;20036;-61
2023/01/29 06:45:54;;;;;;;41.35;25.98;;;4.00;99.90;;;;;;5091894;28;20047;-61
2023/01/29 06:48:21;;;;;;;46.38;27.50;;;4.00;99.90;;;;;;5082145;28;20512;-62
2023/01/29 06:50:48;;;;;;;45.17;28.80;;;4.00;99.90;;;;;;5080094;28;20055;-61
2023/01/29 06:53:14;;;;;;;41.80;27.92;;;4.00;99.90;;;;;;5065600;28;20058;-61
2023/01/29 06:55:41;;;;;;;45.92;28.98;;;4.00;99.90;;;;;;5058316;28;20090;-61
2023/01/29 06:58:08;;;;;;;47.20;28.52;;;4.00;99.90;;;;;;5084944;28;20039;-61
2023/01/29 07:00:34;;;;;;;46.45;29.13;;;4.10;99.90;;;;;;5057764;28;20097;-62
2023/01/29 07:03:01;;;;;;;45.33;28.60;;;4.10;99.90;;;;;;5074523;28;20508;-61
2023/01/29 07:05:27;;;;;;;50.72;31.42;;;4.00;99.90;;;;;;5095154;28;20460;-63
2023/01/29 07:07:53;;;;;;;53.60;29.25;;;4.00;99.90;;;;;;5069970;28;20052;-60
2023/01/29 07:10:19;;;;;;;48.17;29.70;;;4.00;99.90;;;;;;5075290;28;20051;-61
2023/01/29 07:12:45;;;;;;;49.40;30.77;;;4.00;99.90;;;;;;5085049;28;22138;-62
2023/01/29 07:15:11;;;;;;;49.10;29.77;;;4.00;99.90;;;;;;5072432;28;20100;-62
2023/01/29 07:17:38;;;;;;;50.10;29.58;;;4.00;99.90;;;;;;5082778;28;20040;-61
2023/01/29 07:20:05;;;;;;;56.97;29.08;;;4.00;99.90;;;;;;5048607;28;20493;-62
2023/01/29 07:22:31;;;;;;;46.08;28.20;;;4.00;99.90;;;;;;5070872;28;20042;-62
2023/01/29 07:24:57;;;;;;;44.97;27.75;;;4.00;99.90;;;;;;5074604;28;20047;-62
2023/01/29 07:27:23;;;;;;;46.63;28.38;;;4.10;99.90;;;;;;5071910;28;20508;-61
2023/01/29 07:29:49;;;;;;;44.28;26.60;;;4.00;99.90;;;;;;5075444;28;20130;-61
2023/01/29 07:32:15;;;;;;;44.22;27.98;;;4.00;99.90;;;;;;5058752;28;20149;-60
2023/01/29 07:34:40;;;;;;;54.50;28.02;;;4.00;99.90;;;;;;5060230;28;20410;-61
2023/01/29 07:37:06;;;;;;;46.45;28.80;;;4.10;99.90;;;;;;5065849;28;20066;-61
2023/01/29 07:39:32;;;;;;;44.75;27.48;;;4.00;99.90;;;;;;5060458;28;20051;-61
2023/01/29 07:41:58;;;;;;;52.97;29.90;;;4.10;99.90;;;;;;5080328;28;20389;-61
2023/01/29 07:44:24;;;;;;;47.15;29.08;;;4.00;99.90;;;;;;5090014;28;20119;-61
2023/01/29 07:46:50;;;;;;;47.25;30.40;;;4.10;99.90;;;;;;5063101;28;20440;-62
2023/01/29 07:49:15;;;;;;;47.97;30.83;;;4.10;99.90;;;;;;5077980;28;20672;-61
2023/01/29 07:51:41;;;;;;;47.67;30.73;;;4.10;99.90;;;;;;5063617;28;20463;-62
2023/01/29 07:54:07;;;;;;;48.42;31.27;;;4.10;99.90;;;;;;5039230;28;20048;-61
2023/01/29 07:56:33;;;;;;;47.95;31.98;;;4.00;99.90;;;;;;5051633;28;20033;-61
2023/01/29 07:58:59;;;;;;;51.13;32.63;;;4.00;99.90;;;;;;5052987;28;20483;-61
2023/01/29 08:01:24;;;;;;;52.08;32.38;;;4.00;99.90;;;;;;5024873;28;20526;-62
2023/01/29 08:03:50;;;;;;;49.85;32.17;;;4.10;99.90;;;;;;5033378;28;20460;-61
2023/01/29 08:06:16;;;;;;;55.03;34.17;;;4.10;99.90;;;;;;5032261;28;20045;-63
2023/01/29 08:08:42;;;;;;;53.85;34.65;;;4.10;99.90;;;;;;5030590;28;20407;-61
2023/01/29 08:11:08;;;;;;;54.30;33.65;;;4.10;99.90;;;;;;5049912;28;20091;-61
2023/01/29 08:13:33;;;;;;;52.38;33.85;;;4.10;99.90;;;;;;5055756;28;20585;-61
2023/01/29 08:16:03;;;;;;;51.97;33.03;;;4.00;99.90;;;;;;5049190;28;20048;-62
2023/01/29 08:18:30;;;;;;;51.97;34.33;;;4.10;99.90;;;;;;5031632;28;20037;-61
2023/01/29 08:21:02;;;;;;;56.13;34.45;;;4.10;99.90;;;;;;5049629;28;20079;-62
2023/01/29 08:23:29;;;;;;;53.08;34.92;;;4.10;99.90;;;;;;5047398;28;20056;-61
2023/01/29 08:25:55;;;;;;;52.92;35.03;;;4.10;99.90;;;;;;5052827;28;20041;-61
2023/01/29 08:28:20;;;;;;;55.70;34.88;;;4.10;99.90;;;;;;5050389;28;20150;-62
2023/01/29 08:30:46;;;;;;;54.35;35.85;;;4.10;99.90;;;;;;5051588;28;20045;-61
2023/01/29 08:33:12;;;;;;;58.25;36.55;;;4.10;99.90;;;;;;5044289;28;20483;-61
2023/01/29 08:35:40;;;;;;;57.95;35.03;;;4.10;99.90;;;;;;5050627;28;20455;-61
2023/01/29 08:38:05;;;;;;;58.25;35.80;;;4.10;99.90;;;;;;5047509;28;20049;-62
2023/01/29 08:40:33;;;;;;;53.67;35.67;;;4.10;99.90;;;;;;5047298;28;20103;-62
2023/01/29 08:43:00;;;;;;;56.63;35.72;;;4.20;99.90;;;;;;5034548;28;20052;-62
2023/01/29 08:45:26;;;;;;;56.10;36.40;;;4.10;99.90;;;;;;5052146;28;20063;-60
2023/01/29 08:47:52;;;;;;;52.53;34.75;;;4.10;99.90;;;;;;5047894;28;20048;-61
2023/01/29 08:50:18;;;;;;;56.45;35.90;;;4.10;99.90;;;;;;5044831;28;20151;-61
2023/01/29 08:52:44;;;;;;;58.92;36.42;;;4.10;99.90;;;;;;5041607;28;20052;-62
2023/01/29 08:55:11;;;;;;;59.38;36.25;;;4.20;99.90;;;;;;5036428;28;20514;-62
2023/01/29 08:57:37;;;;;;;64.38;37.17;;;4.10;99.90;;;;;;5042971;28;20514;-62
2023/01/29 09:00:05;;;;;;;60.10;37.17;;;4.10;99.90;;;;;;5049874;28;20051;-61
2023/01/29 09:02:31;;;;;;;68.43;38.13;;;4.10;99.90;;;;;;5037208;28;20045;-62
2023/01/29 09:04:57;;;;;;;57.40;36.67;;;4.20;99.90;;;;;;5046164;28;20052;-61
2023/01/29 09:07:23;;;;;;;61.80;36.72;;;4.20;99.90;;;;;;5050148;28;20402;-61
2023/01/29 09:09:49;;;;;;;58.38;35.40;;;4.20;99.90;;;;;;5051083;28;20087;-61
2023/01/29 09:12:14;;;;;;;60.60;36.20;;;4.20;99.90;;;;;;5037634;28;20704;-61
2023/01/29 09:14:40;;;;;;;63.20;36.83;;;4.30;99.90;;;;;;5033871;28;20040;-61
2023/01/29 09:17:06;;;;;;;63.88;37.15;;;4.30;99.90;;;;;;5037195;28;20055;-62
2023/01/29 09:19:32;;;;;;;56.50;35.35;;;4.30;99.90;;;;;;5039599;28;20045;-62
2023/01/29 09:21:57;;;;;;;68.28;37.00;;;4.30;99.90;;;;;;5037727;28;20407;-62
2023/01/29 09:24:23;;;;;;;58.78;34.45;;;4.30;99.90;;;;;;5026555;28;23609;-60
2023/01/29 09:26:49;;;;;;;60.75;36.72;;;4.30;99.90;;;;;;5034222;28;20053;-62
2023/01/29 09:29:15;;;;;;;57.35;35.67;;;4.40;99.90;;;;;;5020147;28;20057;-61
2023/01/29 09:31:41;;;;;;;55.05;32.35;;;4.40;99.90;;;;;;5037093;28;20141;-62
2023/01/29 09:34:07;;;;;;;59.08;35.33;;;4.40;99.90;;;;;;5044086;28;20053;-61
2023/01/29 09:36:32;;;;;;;55.60;34.50;;;4.40;99.90;;;;;;5029842;28;20047;-62
2023/01/29 09:38:58;;;;;;;57.22;34.33;;;4.50;99.90;;;;;;5026324;28;20066;-62
2023/01/29 09:41:51;;;;;;;60.75;33.80;;;4.50;99.90;;;;;;5036596;28;20135;-61
2023/01/29 09:44:26;;;;;;;52.78;32.42;;;4.50;99.90;;;;;;5034041;28;20045;-62
2023/01/29 09:46:54;;;;;;;53.90;33.65;;;4.50;99.90;;;;;;5023507;28;20095;-62
2023/01/29 09:49:49;;;;;;;54.10;33.58;;;4.50;99.90;;;;;;5037105;28;20071;-61
2023/01/29 09:52:18;;;;;;;56.70;33.83;;;4.50;99.90;;;;;;5031694;28;20049;-62
2023/01/29 09:55:16;;;;;;;56.88;33.88;;;4.60;99.90;;;;;;5031493;28;20045;-62
2023/01/29 09:57:54;;;;;;;53.28;33.53;;;4.50;99.90;;;;;;5035037;28;20060;-61
2023/01/29 10:01:10;;;;;;;60.35;33.95;;;4.60;99.90;;;;;;5030919;28;20087;-62
2023/01/29 10:04:03;;;;;;;54.35;33.50;;;4.60;99.90;;;;;;4993092;28;20053;-63
2023/01/29 10:06:47;;;;;;;57.90;34.53;;;4.60;99.90;;;;;;5015620;28;20126;-62
2023/01/29 10:09:28;;;;;;;58.70;33.50;;;4.70;99.90;;;;;;5027756;28;20056;-61
2023/01/29 10:12:32;;;;;;;63.92;34.00;;;4.70;99.90;;;;;;5042924;28;20041;-63
2023/01/29 10:15:19;;;;;;;55.83;33.78;;;4.70;99.90;;;;;;5039357;28;20073;-62
2023/01/29 10:17:57;;;;;;;59.28;33.22;;;4.70;99.90;;;;;;5036562;28;20110;-62
2023/01/29 10:20:54;;;;;;;59.08;34.92;;;4.70;99.90;;;;;;5023176;28;20111;-62
2023/01/29 10:23:45;;;;;;;61.17;33.65;;;4.70;99.90;;;;;;5040319;28;20041;-60
2023/01/29 10:26:12;;;;;;;62.92;35.90;;;4.70;99.90;;;;;;5035934;28;20052;-61
2023/01/29 10:28:49;;;;;;;60.35;34.35;;;4.70;99.90;;;;;;5035470;28;20041;-62
2023/01/29 10:31:30;;;;;;;58.70;35.45;;;4.50;99.90;;;;;;5039124;28;20059;-62
2023/01/29 10:34:20;;;;;;;58.00;35.30;;;4.70;99.90;;;;;;5042265;28;20051;-61
2023/01/29 10:36:48;;;;;;;61.15;35.45;;;4.70;99.90;;;;;;5044281;28;20736;-60
2023/01/29 10:39:19;;;;;;;60.72;34.00;;;4.70;99.90;;;;;;5041128;28;20522;-62
2023/01/29 10:41:57;;;;;;;60.72;34.10;;;4.70;99.90;;;;;;5043567;28;20060;-61
2023/01/29 10:44:53;;;;;;;64.85;35.15;;;4.70;99.90;;;;;;5023927;28;20048;-61
2023/01/29 10:47:39;;;;;;;59.55;34.22;;;4.70;99.90;;;;;;5038017;28;20110;-61
2023/01/29 10:50:33;;;;;;;65.13;36.58;;;4.70;99.90;;;;;;5045984;28;20134;-62
2023/01/29 10:53:11;;;;;;;59.17;32.20;;;4.80;99.90;;;;;;5084917;28;20067;-60
2023/01/29 10:56:18;;;;;;;58.38;34.60;;;4.80;99.90;;;;;;5072443;28;20050;-61
2023/01/29 10:58:52;;;;;;;54.40;32.78;;;4.80;99.90;;;;;;4986037;28;20061;-62
2023/01/29 11:01:18;;;;;;;58.20;34.38;;;4.80;99.90;;;;;;5053374;28;20145;-62
2023/01/29 11:03:44;;;;;;;57.00;33.55;;;4.80;99.90;;;;;;5049401;28;20047;-62
2023/01/29 11:06:28;;;;;;;59.05;33.00;;;4.90;99.90;;;;;;5055666;28;20047;-62
2023/01/29 11:09:25;;;;;;;57.60;32.80;;;4.80;99.90;;;;;;5057415;28;20055;-62
2023/01/29 11:12:14;;;;;;;57.33;32.60;;;4.80;99.90;;;;;;5047864;28;20587;-62
2023/01/29 11:14:58;;;;;;;57.88;33.35;;;4.80;99.90;;;;;;5075048;27;20114;-61
2023/01/29 11:17:25;;;;;;;55.13;33.60;;;4.80;99.90;;;;;;5079267;28;20048;-61
2023/01/29 11:19:55;;;;;;;56.50;32.72;;;4.90;99.90;;;;;;5062002;28;20043;-62
2023/01/29 11:22:27;;;;;;;61.00;33.60;;;4.90;99.90;;;;;;5061115;28;20105;-62
2023/01/29 11:25:16;;;;;;;60.58;33.47;;;4.80;99.90;;;;;;5042554;28;22294;-62
2023/01/29 11:27:48;;;;;;;60.95;31.80;;;4.80;99.90;;;;;;5054292;28;20473;-62
2023/01/29 11:30:23;;;;;;;57.97;33.30;;;4.90;99.90;;;;;;5057475;28;20087;-61
2023/01/29 11:32:57;;;;;;;55.05;32.60;;;4.90;99.90;;;;;;5039271;28;20048;-62
2023/01/29 11:35:24;;;;;;;55.92;31.88;;;4.90;99.90;;;;;;5055850;28;20039;-62
2023/01/29 11:37:50;;;;;;;54.53;32.20;;;4.90;99.90;;;;;;5044087;28;20783;-63
2023/01/29 11:40:26;;;;;;;55.30;30.83;;;4.90;99.90;;;;;;5053905;28;20044;-61
2023/01/29 11:42:52;;;;;;;49.63;30.08;;;4.90;99.90;;;;;;5053606;28;20055;-62
2023/01/29 11:45:31;;;;;;;63.42;33.58;;;4.90;99.90;;;;;;5074510;28;20508;-62
2023/01/29 11:47:58;;;;;;;55.13;31.50;;;4.90;99.90;;;;;;5038224;28;20177;-61
2023/01/29 11:50:26;;;;;;;54.60;30.67;;;4.90;99.90;;;;;;5058805;28;20043;-61
2023/01/29 11:52:52;;;;;;;59.22;30.90;;;4.90;99.90;;;;;;5062770;28;20071;-62
2023/01/29 11:55:20;;;;;;;54.67;31.33;;;4.90;99.90;;;;;;5082654;28;20064;-61
2023/01/29 11:58:11;;;;;;;52.17;31.48;;;5.00;99.90;;;;;;5079945;28;20423;-62
2023/01/29 12:00:39;;;;;;;59.28;30.58;;;5.00;99.90;;;;;;5060938;28;20044;-61
2023/01/29 12:03:34;;;;;;;55.95;31.20;;;5.00;99.90;;;;;;5063008;28;20463;-62
2023/01/29 12:06:07;;;;;;;51.70;31.02;;;5.10;99.90;;;;;;5064749;27;20082;-61
2023/01/29 12:08:35;;;;;;;;;;;5.10;99.90;;;;;;5084536;28;20097;-61
2023/01/29 12:11:10;;;;;;;53.05;28.83;;;5.10;99.90;;;;;;5069664;28;20018;-61
2023/01/29 12:13:37;;;;;;;51.75;29.25;;;5.00;99.90;;;;;;5064881;28;20032;-61
2023/01/29 12:16:11;;;;;;;47.45;27.70;;;5.00;99.90;;;;;;5085162;28;20053;-63
2023/01/29 12:18:41;;;;;;;51.83;28.98;;;5.10;99.90;;;;;;5046011;28;20060;-60
2023/01/29 12:21:19;;;;;;;46.28;27.40;;;5.10;99.90;;;;;;5060912;28;20112;-61
2023/01/29 12:24:16;;;;;;;42.65;25.90;;;5.10;99.90;;;;;;5079781;28;20050;-61
2023/01/29 12:26:53;;;;;;;47.53;28.25;;;5.10;99.90;;;;;;5071300;28;20092;-61
2023/01/29 12:29:44;;;;;;;46.58;26.35;;;5.10;99.90;;;;;;5060425;28;20051;-62
2023/01/29 12:32:34;;;;;;;43.03;25.70;;;5.10;99.90;;;;;;5059140;28;20047;-61
2023/01/29 12:35:11;;;;;;;43.25;26.17;;;5.10;99.90;;;;;;5062520;28;20158;-62
2023/01/29 12:38:03;;;;;;;42.25;25.50;;;5.10;99.90;;;;;;5051907;28;20039;-62
2023/01/29 12:40:38;;;;;;;43.58;26.77;;;5.20;99.90;;;;;;5067017;28;20048;-62
2023/01/29 12:43:23;;;;;;;44.92;25.73;;;5.20;99.90;;;;;;5063487;28;20103;-62
2023/01/29 12:45:52;;;;;;;44.65;25.95;;;5.20;99.90;;;;;;5065009;28;20047;-62
2023/01/29 12:48:30;;;;;;;38.10;24.27;;;5.20;99.90;;;;;;5042591;28;20200;-61
2023/01/29 12:51:24;;;;;;;38.67;23.17;;;5.20;99.90;;;;;;5062392;28;20395;-61
2023/01/29 12:54:01;;;;;;;40.60;23.17;;;5.30;99.90;;;;;;5059770;28;20055;-62
2023/01/29 12:56:41;;;;;;;40.25;23.38;;;5.20;99.90;;;;;;5061132;28;20054;-61
2023/01/29 12:59:20;;;;;;;41.80;24.38;;;5.30;99.90;;;;;;5063420;28;20062;-62
2023/01/29 13:01:57;;;;;;;36.05;21.95;;;5.30;99.90;;;;;;5081465;28;20048;-62
2023/01/29 13:04:40;;;;;;;35.38;23.08;;;5.30;99.90;;;;;;5084306;28;20044;-62
2023/01/29 13:07:20;;;;;;;34.42;22.17;;;5.30;99.90;;;;;;5070946;28;20136;-61
2023/01/29 13:09:50;;;;;;;36.03;22.50;;;5.30;99.90;;;;;;5065513;28;20137;-62
2023/01/29 13:12:18;;;;;;;34.38;21.63;;;5.30;99.90;;;;;;5064036;28;20219;-62
2023/01/29 13:14:55;;;;;;;36.67;21.33;;;5.40;99.90;;;;;;5062240;28;20039;-62
2023/01/29 13:17:42;;;;;;;33.30;20.30;;;5.30;99.90;;;;;;5073203;28;20066;-61
2023/01/29 13:20:18;;;;;;;31.63;19.65;;;5.30;99.90;;;;;;5049036;28;20413;-61
2023/01/29 13:22:47;;;;;;;32.67;20.65;;;5.30;99.90;;;;;;5057962;28;20046;-62
2023/01/29 13:25:17;;;;;;;33.38;21.15;;;5.30;99.90;;;;;;5063355;28;20082;-61
2023/01/29 13:27:46;;;;;;;36.45;20.50;;;5.30;99.90;;;;;;5066065;28;20048;-62
2023/01/29 13:30:28;;;;;;;38.58;22.95;;;5.30;99.90;;;;;;5047716;28;20100;-61
2023/01/29 13:33:07;;;;;;;35.37;21.93;;;5.30;99.90;;;;;;5059148;28;20054;-61
2023/01/29 13:35:39;;;;;;;34.97;22.60;;;5.30;99.90;;;;;;5058049;28;20039;-61
2023/01/29 13:38:25;;;;;;;39.35;22.55;;;5.30;99.90;;;;;;5063359;28;20436;-60